Flight Track Log - Related Links

Times and Time Zones

All times are in EDT time to prevent confusion due to time zone crossing. See the CTL15 flight status page for this flight to view local times or setup timezone preferences in your user account.


Time Position Orientation Groundspeed Altitude Reporting Facility
EDT Latitude Longitude Course Direction KTS MPH feet Rate Location/Type
Wed 07:38:56 PM 39.6131 -84.2228 45° Northeast 127 146 3,300  Level Indianapolis Center
Wed 07:39:45 PM 39.6342 -84.1956 45° Northeast 138 159 3,800 532 Climbing Indianapolis Center
Wed 07:40:15 PM 39.6442 -84.1819 46° Northeast 134 154 4,000 787 Climbing Indianapolis Center
Wed 07:40:46 PM 39.6664 -84.1592 38° Northeast 157 181 4,600 968 Climbing Indianapolis Center
Wed 07:41:17 PM 39.6819 -84.1367 48° Northeast 149 171 5,000 800 Climbing Indianapolis Center
Wed 07:41:46 PM 39.6989 -84.1175 41° Northeast 157 181 5,400 787 Climbing Indianapolis Center
Wed 07:42:18 PM 39.7139 -84.0981 45° Northeast 154 177 5,800 885 Climbing Indianapolis Center
Wed 07:42:47 PM 39.7292 -84.0781 45° Northeast 155 178 6,300 774 Climbing Indianapolis Center
Wed 07:43:20 PM 39.7450 -84.0556 48° Northeast 158 182 6,600 658 Climbing Indianapolis Center
Wed 07:44:00 PM 39.7686 -84.0289 41° Northeast 164 189 7,100 393 Climbing Indianapolis Center
Wed 07:44:21 PM 39.7797 -84.0147 44° Northeast 162 186 7,000  Descending Indianapolis Center
Wed 07:45:01 PM 39.8058 -83.9819 44° Northeast 187 215 7,100  Climbing Indianapolis Center
Wed 07:45:23 PM 39.8194 -83.9667 41° Northeast 177 204 7,000  Descending Indianapolis Center
Wed 07:45:49 PM 39.8381 -83.9428 45° Northeast 208 239 7,100  Climbing Indianapolis Center
Wed 07:46:24 PM 39.8619 -83.9153 41° Northeast 194 223 7,000  Descending Indianapolis Center
Wed 07:46:50 PM 39.8861 -83.8917 37° Northeast 207 238 7,100  Climbing Indianapolis Center
Wed 07:47:26 PM 39.9053 -83.8639 48° Northeast 203 234 7,000 -90 Descending Indianapolis Center
Wed 07:47:57 PM 39.9281 -83.8344 45° Northeast 203 234 7,000  Level Indianapolis Center
Wed 07:48:27 PM 39.9461 -83.8114 44° Northeast 204 235 7,000  Level Indianapolis Center
Wed 07:48:52 PM 39.9631 -83.7872 48° Northeast 202 232 7,000  Level Indianapolis Center
Wed 07:49:29 PM 39.9861 -83.7583 44° Northeast 203 234 7,000 111 Level Indianapolis Center
Wed 07:49:46 PM 40.0022 -83.7406 40° Northeast 205 236 7,100  Climbing Indianapolis Center
Wed 07:50:30 PM 40.0264 -83.7050 48° Northeast 203 234 7,000  Descending Indianapolis Center
Wed 07:50:47 PM 40.0397 -83.6853 49° Northeast 203 234 7,100  Climbing Indianapolis Center
Wed 07:51:32 PM 40.0656 -83.6500 46° Northeast 204 235 7,000 -98 Descending Indianapolis Center
Wed 07:51:48 PM 40.0792 -83.6331 44° Northeast 205 236 7,000 -97 Level Indianapolis Center
Wed 07:52:34 PM 40.1072 -83.5978 44° Northeast 204 235 6,900  Descending Indianapolis Center
Wed 07:53:35 PM 40.1494 -83.5469 43° Northeast 204 235 7,000 79 Climbing Indianapolis Center
Wed 07:53:50 PM 40.1667 -83.5267 42° Northeast 204 235 7,000  Level Indianapolis Center
Wed 07:54:37 PM 40.1978 -83.4861 45° Northeast 204 235 7,000 -83 Level Indianapolis Center
Wed 07:55:02 PM 40.2128 -83.4667 45° Northeast 205 236 6,900 -98 Descending Indianapolis Center
Wed 07:55:38 PM 40.2372 -83.4308 48° Northeast 207 238 6,900 98 Level Indianapolis Center
Wed 07:56:03 PM 40.2522 -83.4142 40° Northeast 203 234 7,000 97 Climbing Indianapolis Center
Wed 07:56:40 PM 40.2786 -83.3797 45° Northeast 203 234 7,000  Level Indianapolis Center
Wed 07:57:04 PM 40.2939 -83.3592 46° Northeast 199 229 7,000  Level Indianapolis Center
Wed 07:57:41 PM 40.3186 -83.3292 43° Northeast 200 230 7,000  Level Indianapolis Center
Wed 07:57:58 PM 40.3283 -83.3167 44° Northeast 199 229 7,000  Level Indianapolis Center
Wed 07:58:43 PM 40.3575 -83.2756 47° Northeast 201 231 7,000  Level Indianapolis Center
Wed 07:58:59 PM 40.3700 -83.2589 45° Northeast 202 232 7,000  Level Indianapolis Center
Wed 07:59:44 PM 40.3967 -83.2225 46° Northeast 201 231 7,000 -56 Level Indianapolis Center
Wed 08:00:46 PM 40.4344 -83.1711 46° Northeast 199 229 6,900  Descending Indianapolis Center
Wed 08:01:48 PM 40.4747 -83.1167 46° Northeast 200 230 7,000  Climbing Indianapolis Center
Wed 08:02:49 PM 40.5106 -83.0617 49° Northeast 198 228 6,900  Descending Indianapolis Center
Wed 08:03:50 PM 40.5497 -83.0133 43° Northeast 197 227 7,000  Climbing Indianapolis Center
Wed 08:04:52 PM 40.5889 -82.9614 45° Northeast 198 228 6,900  Descending Indianapolis Center
Wed 08:05:53 PM 40.6372 -82.9019 43° Northeast 202 232 7,000 49 Climbing Indianapolis Center
Wed 08:06:55 PM 40.6781 -82.8503 44° Northeast 202 232 7,000 -146 Level Indianapolis Center
Wed 08:07:56 PM 40.7189 -82.7994 43° Northeast 201 231 6,700 -293 Descending Indianapolis Center
Wed 08:08:58 PM 40.7608 -82.7458 44° Northeast 206 237 6,400 -293 Descending Indianapolis Center
Wed 08:09:59 PM 40.8042 -82.6914 44° Northeast 210 242 6,100 -390 Descending Indianapolis Center
Wed 08:11:01 PM 40.8467 -82.6350 45° Northeast 215 247 5,600 -484 Descending Indianapolis Center

Login

Don't have an account? Register now (free) for customized features, flight alerts, and more!